createdAt,value
2023-05-08T00:00:42.226Z,5.82
2023-05-08T00:03:09.900Z,6.88
2023-05-08T00:05:37.444Z,6.78
2023-05-08T00:08:05.032Z,7.00
2023-05-08T00:10:32.434Z,8.00
2023-05-08T00:12:59.997Z,6.07
2023-05-08T00:15:27.455Z,8.30
2023-05-08T00:17:54.980Z,7.22
2023-05-08T00:20:22.436Z,7.28
2023-05-08T00:22:49.960Z,9.10
2023-05-08T00:25:17.381Z,6.65
2023-05-08T00:27:44.803Z,6.32
2023-05-08T00:30:12.646Z,9.18
2023-05-08T00:32:41.116Z,8.10
2023-05-08T00:35:08.695Z,7.38
2023-05-08T00:37:37.797Z,9.52
2023-05-08T00:40:05.339Z,6.65
2023-05-08T00:42:32.758Z,13.40
2023-05-08T00:45:00.218Z,7.43
2023-05-08T00:47:27.766Z,8.52
2023-05-08T00:49:55.217Z,6.50
2023-05-08T00:52:22.746Z,9.07
2023-05-08T00:54:50.281Z,9.02
2023-05-08T00:57:18.727Z,6.78
2023-05-08T00:59:47.164Z,6.13
2023-05-08T01:02:15.583Z,5.85
2023-05-08T01:04:46.252Z,6.28
2023-05-08T01:07:13.625Z,9.30
2023-05-08T01:09:41.006Z,7.88
2023-05-08T01:12:11.652Z,8.50
2023-05-08T01:15:01.488Z,8.25
2023-05-08T01:17:35.633Z,5.43
2023-05-08T01:20:18.498Z,8.15
2023-05-08T01:22:46.049Z,7.68
2023-05-08T01:25:32.186Z,4.93
2023-05-08T01:28:23.187Z,7.25
2023-05-08T01:30:59.453Z,7.75
2023-05-08T01:33:29.673Z,9.25
2023-05-08T01:35:59.793Z,7.50
2023-05-08T01:38:35.577Z,7.35
2023-05-08T01:41:09.223Z,12.82
2023-05-08T01:43:52.059Z,5.90
2023-05-08T01:46:21.531Z,6.13
2023-05-08T01:49:06.022Z,5.22
2023-05-08T01:51:43.943Z,5.82
2023-05-08T01:54:13.430Z,5.13
2023-05-08T01:56:43.186Z,6.60
2023-05-08T01:59:11.305Z,8.15
2023-05-08T02:01:39.652Z,6.10
2023-05-08T02:04:07.917Z,7.03
2023-05-08T02:06:38.118Z,5.60
2023-05-08T02:09:08.083Z,8.18
2023-05-08T02:11:36.341Z,7.55
2023-05-08T02:14:05.243Z,7.28
2023-05-08T02:16:33.286Z,7.20
2023-05-08T02:19:01.522Z,6.68
2023-05-08T02:21:29.642Z,7.90
2023-05-08T02:23:57.704Z,6.32
2023-05-08T02:26:26.364Z,5.63
2023-05-08T02:28:54.869Z,8.07
2023-05-08T02:31:22.682Z,8.18
2023-05-08T02:33:50.290Z,13.13
2023-05-08T02:36:19.834Z,8.07
2023-05-08T02:38:49.233Z,7.10
2023-05-08T02:41:18.824Z,7.72
2023-05-08T02:43:46.889Z,10.00
2023-05-08T02:46:20.487Z,10.20
2023-05-08T02:48:54.891Z,9.07
2023-05-08T02:51:38.651Z,8.90
2023-05-08T02:54:11.119Z,9.98
2023-05-08T02:56:39.861Z,9.52
2023-05-08T02:59:31.065Z,10.10
2023-05-08T03:02:11.253Z,10.85
2023-05-08T03:04:43.125Z,8.70
2023-05-08T03:07:11.275Z,8.13
2023-05-08T03:09:46.226Z,9.25
2023-05-08T03:12:16.200Z,10.85
2023-05-08T03:14:46.535Z,6.90
2023-05-08T03:17:14.864Z,10.90
2023-05-08T03:19:43.461Z,6.57
2023-05-08T03:22:11.199Z,7.43
2023-05-08T03:24:40.267Z,7.40
2023-05-08T03:27:08.279Z,8.48
2023-05-08T03:29:36.757Z,9.23
2023-05-08T03:32:04.536Z,8.52
2023-05-08T03:34:32.050Z,7.45
2023-05-08T03:36:59.649Z,10.45
2023-05-08T03:39:27.344Z,11.43
2023-05-08T03:41:56.315Z,9.30
2023-05-08T03:44:25.288Z,8.52
2023-05-08T03:46:53.690Z,8.57
2023-05-08T03:49:23.145Z,9.40
2023-05-08T03:51:50.894Z,8.95
2023-05-08T03:54:18.284Z,9.65
2023-05-08T03:56:47.915Z,12.63
2023-05-08T03:59:18.466Z,6.72
2023-05-08T04:01:58.154Z,10.85
2023-05-08T04:04:28.687Z,8.98
2023-05-08T04:07:11.717Z,7.97
2023-05-08T04:10:04.870Z,11.80
2023-05-08T04:13:08.374Z,9.48
2023-05-08T04:15:48.701Z,6.75
2023-05-08T04:18:18.948Z,9.95
2023-05-08T04:20:50.310Z,11.90
2023-05-08T04:23:19.370Z,9.77
2023-05-08T04:25:47.719Z,11.70
2023-05-08T04:28:16.030Z,8.57
2023-05-08T04:30:43.638Z,8.15
2023-05-08T04:33:12.197Z,8.82
2023-05-08T04:35:39.823Z,8.38
2023-05-08T04:38:07.683Z,9.10
2023-05-08T04:40:35.370Z,9.30
2023-05-08T04:43:03.481Z,8.68
2023-05-08T04:45:30.985Z,6.32
2023-05-08T04:47:58.512Z,7.13
2023-05-08T04:50:26.439Z,8.52
2023-05-08T04:52:53.988Z,6.93
2023-05-08T04:55:21.516Z,6.85
2023-05-08T04:57:49.172Z,6.22
2023-05-08T05:00:17.156Z,8.25
2023-05-08T05:02:46.515Z,7.95
2023-05-08T05:05:14.340Z,6.40
2023-05-08T05:07:42.060Z,5.75
2023-05-08T05:10:11.552Z,5.38
2023-05-08T05:12:39.211Z,6.68
2023-05-08T05:15:07.150Z,8.40
2023-05-08T05:17:36.881Z,10.05
2023-05-08T05:20:06.032Z,10.57
2023-05-08T05:22:34.053Z,5.80
2023-05-08T05:25:01.876Z,7.18
2023-05-08T05:27:29.610Z,6.15
2023-05-08T05:29:57.171Z,4.45
2023-05-08T05:32:24.685Z,6.95
2023-05-08T05:34:53.913Z,4.80
2023-05-08T05:37:22.326Z,2.92
2023-05-08T05:39:49.973Z,5.75
2023-05-08T05:42:17.431Z,5.72
2023-05-08T05:44:44.938Z,6.18
2023-05-08T05:47:12.648Z,6.00
2023-05-08T05:49:46.749Z,5.93
2023-05-08T05:52:14.673Z,5.68
2023-05-08T05:54:42.650Z,5.70
2023-05-08T05:57:10.283Z,6.45
2023-05-08T05:59:38.451Z,7.90
2023-05-08T06:02:10.475Z,5.07
2023-05-08T06:04:38.873Z,4.47
2023-05-08T06:07:07.695Z,3.70
2023-05-08T06:09:35.189Z,4.53
2023-05-08T06:12:02.601Z,5.25
2023-05-08T06:14:31.070Z,6.78
2023-05-08T06:17:00.003Z,5.70
2023-05-08T06:19:28.620Z,6.68
2023-05-08T06:21:56.298Z,6.10
2023-05-08T06:24:23.697Z,6.97
2023-05-08T06:26:51.192Z,7.15
2023-05-08T06:29:18.656Z,4.18
2023-05-08T06:31:46.115Z,5.80
2023-05-08T06:34:13.619Z,6.00
2023-05-08T06:36:41.370Z,3.95
2023-05-08T06:39:09.174Z,4.38
2023-05-08T06:41:36.959Z,5.18
2023-05-08T06:44:04.431Z,4.30
2023-05-08T06:46:32.004Z,4.15
2023-05-08T06:48:59.494Z,4.38
2023-05-08T06:51:27.171Z,4.43
2023-05-08T06:53:54.582Z,5.43
2023-05-08T06:56:22.843Z,5.07
2023-05-08T06:58:57.092Z,4.30
2023-05-08T07:01:32.379Z,7.28
2023-05-08T07:04:00.744Z,3.67
2023-05-08T07:06:28.316Z,5.75
2023-05-08T07:08:55.666Z,6.63
2023-05-08T07:11:23.157Z,4.47
2023-05-08T07:13:50.697Z,4.72
2023-05-08T07:16:18.190Z,5.95
2023-05-08T07:18:45.690Z,3.70
2023-05-08T07:21:13.381Z,4.63
2023-05-08T07:23:40.737Z,5.35
2023-05-08T07:26:08.278Z,6.43
2023-05-08T07:28:35.692Z,5.40
2023-05-08T07:31:07.219Z,5.40
2023-05-08T07:33:34.733Z,8.70
2023-05-08T07:36:02.127Z,3.95
2023-05-08T07:38:29.726Z,7.55
2023-05-08T07:40:57.565Z,7.63
2023-05-08T07:43:25.064Z,5.10
2023-05-08T07:45:52.811Z,6.22
2023-05-08T07:48:20.384Z,5.88
2023-05-08T07:50:47.908Z,5.40
2023-05-08T07:53:15.350Z,7.60
2023-05-08T07:55:42.852Z,5.88
2023-05-08T07:58:10.316Z,6.47
2023-05-08T08:00:37.914Z,13.15
2023-05-08T08:03:05.310Z,10.68
2023-05-08T08:05:32.871Z,8.77
2023-05-08T08:08:00.416Z,8.00
2023-05-08T08:10:28.101Z,6.97
2023-05-08T08:12:55.540Z,8.57
2023-05-08T08:15:23.057Z,8.30
2023-05-08T08:17:50.900Z,8.73
2023-05-08T08:20:18.440Z,5.60
2023-05-08T08:22:45.817Z,5.68
2023-05-08T08:25:13.551Z,6.20
2023-05-08T08:27:41.265Z,6.40
2023-05-08T08:30:16.868Z,9.85
2023-05-08T08:32:46.067Z,7.72
2023-05-08T08:35:13.966Z,5.65
2023-05-08T08:37:42.048Z,7.75
2023-05-08T08:40:10.001Z,8.73
2023-05-08T08:42:37.479Z,12.48
2023-05-08T08:45:05.022Z,6.95
2023-05-08T08:47:41.351Z,11.23
2023-05-08T08:50:11.302Z,8.57
2023-05-08T08:52:46.388Z,6.40
2023-05-08T08:55:16.762Z,8.32
2023-05-08T08:58:03.142Z,10.13
2023-05-08T09:00:32.496Z,10.93
2023-05-08T09:03:00.598Z,12.95
2023-05-08T09:05:28.583Z,5.63
2023-05-08T09:07:56.237Z,12.15
2023-05-08T09:10:24.998Z,7.93
2023-05-08T09:12:52.697Z,7.55
2023-05-08T09:15:20.143Z,7.10
2023-05-08T09:17:47.739Z,9.48
2023-05-08T09:20:16.302Z,8.05
2023-05-08T09:22:44.560Z,12.15
2023-05-08T09:25:12.286Z,8.27
2023-05-08T09:27:40.067Z,7.68
2023-05-08T09:30:11.316Z,14.93
2023-05-08T09:32:39.812Z,7.63
2023-05-08T09:35:08.179Z,9.82
2023-05-08T09:37:38.648Z,7.80
2023-05-08T09:40:15.169Z,9.32
2023-05-08T09:42:42.637Z,17.85
2023-05-08T09:45:10.506Z,9.65
2023-05-08T09:47:39.595Z,11.07
2023-05-08T09:50:08.655Z,10.48
2023-05-08T09:52:37.272Z,8.68
2023-05-08T09:55:11.470Z,12.13
2023-05-08T09:57:39.892Z,10.45
2023-05-08T10:00:10.742Z,14.70
2023-05-08T10:02:39.383Z,6.40
2023-05-08T10:05:23.356Z,10.55
2023-05-08T10:07:50.851Z,9.50
2023-05-08T10:10:26.945Z,12.70
2023-05-08T10:12:57.949Z,9.73
2023-05-08T10:15:26.352Z,11.27
2023-05-08T10:18:09.503Z,8.35
2023-05-08T10:20:40.138Z,7.82
2023-05-08T10:23:14.453Z,6.82
2023-05-08T10:25:44.402Z,8.45
2023-05-08T10:28:23.421Z,6.35
2023-05-08T10:30:51.520Z,12.63
2023-05-08T10:33:21.669Z,12.75
2023-05-08T10:35:49.586Z,11.35
2023-05-08T10:38:17.751Z,15.98
2023-05-08T10:40:46.207Z,9.57
2023-05-08T10:43:13.622Z,9.70
2023-05-08T10:45:41.254Z,12.93
2023-05-08T10:48:17.730Z,11.68
2023-05-08T10:50:45.136Z,11.05
2023-05-08T10:53:21.506Z,9.85
2023-05-08T10:55:51.976Z,8.68
2023-05-08T10:58:22.198Z,7.60
2023-05-08T11:00:52.742Z,9.10
2023-05-08T11:03:33.385Z,9.85
2023-05-08T11:06:02.195Z,8.18
2023-05-08T11:08:30.623Z,8.10
2023-05-08T11:11:05.125Z,8.40
2023-05-08T11:13:51.186Z,8.30
2023-05-08T11:16:18.716Z,10.25
2023-05-08T11:19:04.661Z,10.00
2023-05-08T11:21:32.858Z,10.57
2023-05-08T11:24:00.325Z,12.20
2023-05-08T11:26:48.002Z,12.38
2023-05-08T11:29:18.234Z,11.40
2023-05-08T11:31:52.451Z,12.68
2023-05-08T11:34:39.580Z,13.25
2023-05-08T11:37:10.383Z,13.52
2023-05-08T11:39:38.003Z,11.25
2023-05-08T11:42:24.261Z,11.85
2023-05-08T11:45:10.811Z,10.90
2023-05-08T11:47:42.108Z,12.35
2023-05-08T11:50:10.305Z,12.43
2023-05-08T11:52:39.011Z,11.93
2023-05-08T11:55:07.558Z,11.82
2023-05-08T11:57:35.077Z,12.43
2023-05-08T12:00:06.471Z,11.82
2023-05-08T12:02:39.855Z,10.88
2023-05-08T12:05:08.221Z,10.27
2023-05-08T12:07:47.874Z,14.85
2023-05-08T12:10:16.591Z,10.65
2023-05-08T12:12:45.746Z,13.00
2023-05-08T12:15:14.494Z,13.32
2023-05-08T12:17:42.456Z,13.40
2023-05-08T12:20:17.413Z,11.85
2023-05-08T12:22:52.462Z,10.75
2023-05-08T12:25:19.981Z,11.73
2023-05-08T12:27:47.708Z,13.52
2023-05-08T12:30:15.834Z,13.77
2023-05-08T12:32:44.680Z,11.32
2023-05-08T12:35:13.274Z,13.40
2023-05-08T12:37:41.184Z,15.02
2023-05-08T12:40:09.172Z,9.52
2023-05-08T12:42:46.216Z,8.18
2023-05-08T12:45:28.023Z,9.05
2023-05-08T12:48:00.764Z,8.40
2023-05-08T12:50:30.488Z,8.38
2023-05-08T12:53:08.131Z,9.45
2023-05-08T12:55:36.677Z,9.63
2023-05-08T12:58:05.483Z,9.77
2023-05-08T13:00:42.120Z,10.25
2023-05-08T13:03:11.661Z,11.15
2023-05-08T13:05:43.375Z,10.93
2023-05-08T13:08:11.206Z,13.00
2023-05-08T13:10:46.308Z,13.13
2023-05-08T13:13:14.396Z,12.15
2023-05-08T13:15:41.906Z,12.63
2023-05-08T13:18:09.510Z,14.30
2023-05-08T13:20:37.266Z,12.65
2023-05-08T13:23:05.055Z,13.00
2023-05-08T13:25:32.815Z,13.90
2023-05-08T13:28:00.590Z,12.68
2023-05-08T13:30:28.217Z,12.57
2023-05-08T13:32:55.879Z,11.82
2023-05-08T13:35:23.768Z,13.23
2023-05-08T13:37:51.509Z,12.65
2023-05-08T13:40:19.336Z,14.88
2023-05-08T13:42:46.843Z,13.88
2023-05-08T13:45:14.871Z,12.70
2023-05-08T13:47:43.079Z,10.35
2023-05-08T13:50:11.405Z,12.63
2023-05-08T13:52:39.658Z,12.60
2023-05-08T13:55:08.172Z,15.38
2023-05-08T13:57:35.761Z,12.95
2023-05-08T14:00:04.368Z,13.07
2023-05-08T14:02:34.964Z,10.25
2023-05-08T14:05:02.509Z,8.60
2023-05-08T14:07:30.159Z,8.38
2023-05-08T14:09:57.704Z,10.85
2023-05-08T14:12:25.073Z,9.85
2023-05-08T14:14:52.554Z,9.95
2023-05-08T14:17:19.937Z,11.25
2023-05-08T14:19:47.526Z,9.40
2023-05-08T14:22:14.921Z,8.85
2023-05-08T14:24:42.382Z,9.05
2023-05-08T14:27:09.983Z,10.40
2023-05-08T14:29:37.452Z,10.55
2023-05-08T14:32:05.233Z,12.43
2023-05-08T14:34:32.857Z,12.68
2023-05-08T14:37:00.237Z,11.60
2023-05-08T14:39:27.688Z,13.70
2023-05-08T14:42:18.234Z,11.00
2023-05-08T14:44:42.731Z,12.57
2023-05-08T14:47:10.257Z,9.02
2023-05-08T14:49:38.819Z,11.80
2023-05-08T14:52:07.363Z,10.10
2023-05-08T14:54:35.014Z,9.40
2023-05-08T14:57:02.674Z,8.80
2023-05-08T14:59:30.173Z,11.98
2023-05-08T15:01:57.658Z,9.38
2023-05-08T15:04:25.187Z,11.07
2023-05-08T15:06:52.657Z,10.88
2023-05-08T15:09:20.079Z,9.77
2023-05-08T15:11:47.513Z,10.05
2023-05-08T15:14:15.032Z,9.18
2023-05-08T15:16:42.778Z,11.30
2023-05-08T15:19:10.264Z,12.07
2023-05-08T15:21:37.723Z,10.88
2023-05-08T15:24:05.234Z,8.45
2023-05-08T15:26:32.807Z,8.55
2023-05-08T15:29:00.146Z,11.70
2023-05-08T15:31:28.034Z,13.05
2023-05-08T15:33:55.420Z,9.23
2023-05-08T15:36:22.899Z,9.85
2023-05-08T15:38:50.787Z,8.73
2023-05-08T15:41:18.211Z,9.85
2023-05-08T15:43:45.835Z,8.70
2023-05-08T15:46:13.224Z,9.55
2023-05-08T15:48:40.644Z,10.65
2023-05-08T15:51:12.082Z,10.60
2023-05-08T15:53:45.645Z,15.20
2023-05-08T15:56:13.095Z,11.60
2023-05-08T15:58:40.716Z,15.10
2023-05-08T16:01:08.725Z,10.20
2023-05-08T16:03:36.233Z,12.10
2023-05-08T16:06:03.674Z,8.85
2023-05-08T16:08:31.337Z,9.02
2023-05-08T16:10:58.807Z,15.65
2023-05-08T16:13:26.540Z,14.48
2023-05-08T16:15:53.958Z,15.48
2023-05-08T16:18:21.379Z,9.57
2023-05-08T16:20:48.762Z,13.05
2023-05-08T16:23:16.229Z,9.23
2023-05-08T16:25:43.625Z,10.48
2023-05-08T16:28:11.037Z,9.70
2023-05-08T16:30:38.433Z,7.35
2023-05-08T16:33:05.956Z,14.60
2023-05-08T16:35:34.692Z,14.30
2023-05-08T16:38:03.015Z,21.85
2023-05-08T16:40:31.625Z,13.32
2023-05-08T16:42:59.075Z,33.63
2023-05-08T16:45:26.500Z,8.23
2023-05-08T16:47:53.911Z,13.75
2023-05-08T16:50:21.368Z,15.82
2023-05-08T16:52:48.778Z,16.88
2023-05-08T16:55:16.450Z,16.58
2023-05-08T16:57:43.917Z,8.95
2023-05-08T17:00:12.059Z,8.48
2023-05-08T17:02:39.675Z,7.47
2023-05-08T17:05:07.447Z,9.73
2023-05-08T17:07:35.002Z,10.73
2023-05-08T17:10:02.496Z,8.55
2023-05-08T17:12:29.891Z,11.05
2023-05-08T17:14:57.520Z,9.70
2023-05-08T17:17:24.894Z,9.98
2023-05-08T17:19:52.250Z,8.85
2023-05-08T17:22:20.602Z,10.27
2023-05-08T17:24:48.045Z,10.85
2023-05-08T17:27:15.597Z,8.98
2023-05-08T17:29:42.981Z,10.82
2023-05-08T17:32:10.499Z,11.13
2023-05-08T17:34:38.026Z,10.50
2023-05-08T17:37:05.509Z,9.27
2023-05-08T17:39:32.976Z,8.50
2023-05-08T17:42:00.525Z,7.60
2023-05-08T17:44:28.019Z,9.02
2023-05-08T17:46:55.424Z,9.23
2023-05-08T17:49:22.818Z,8.85
2023-05-08T17:51:50.410Z,10.30
2023-05-08T17:54:17.926Z,10.18
2023-05-08T17:56:45.795Z,10.18
2023-05-08T17:59:13.313Z,11.68
2023-05-08T18:01:40.730Z,9.35
2023-05-08T18:04:08.518Z,11.25
2023-05-08T18:06:36.019Z,10.77
2023-05-08T18:09:03.535Z,11.68
2023-05-08T18:11:30.871Z,12.38
2023-05-08T18:13:58.328Z,12.77
2023-05-08T18:16:25.828Z,13.77
2023-05-08T18:18:53.262Z,11.73
2023-05-08T18:21:20.689Z,12.77
2023-05-08T18:23:48.349Z,15.80
2023-05-08T18:26:16.248Z,11.43
2023-05-08T18:28:44.261Z,12.93
2023-05-08T18:31:12.255Z,12.88
2023-05-08T18:33:40.044Z,16.60
2023-05-08T18:36:07.564Z,14.80
2023-05-08T18:38:35.641Z,15.43
2023-05-08T18:41:03.830Z,15.00
2023-05-08T18:43:31.382Z,17.15
2023-05-08T18:46:00.568Z,17.60
2023-05-08T18:48:29.499Z,15.07
2023-05-08T18:50:58.740Z,15.25
2023-05-08T18:53:26.284Z,13.68
2023-05-08T18:55:53.628Z,13.25
2023-05-08T18:58:20.965Z,12.75
2023-05-08T19:00:51.741Z,9.80
2023-05-08T19:03:19.301Z,7.55
2023-05-08T19:05:46.666Z,8.73
2023-05-08T19:08:15.600Z,8.40
2023-05-08T19:10:43.001Z,8.35
2023-05-08T19:13:10.485Z,7.78
2023-05-08T19:15:37.900Z,8.43
2023-05-08T19:18:06.592Z,7.38
2023-05-08T19:20:34.140Z,5.72
2023-05-08T19:23:01.554Z,5.28
2023-05-08T19:25:28.926Z,4.45
2023-05-08T19:27:58.606Z,4.95
2023-05-08T19:30:26.060Z,3.65
2023-05-08T19:32:53.426Z,3.75
2023-05-08T19:35:21.250Z,4.53
2023-05-08T19:37:48.731Z,3.25
2023-05-08T19:40:16.460Z,3.40
2023-05-08T19:42:45.697Z,2.80
2023-05-08T19:45:13.397Z,3.17
2023-05-08T19:47:40.886Z,4.60
2023-05-08T19:50:08.766Z,4.45
2023-05-08T19:52:36.209Z,3.58
2023-05-08T19:55:03.682Z,3.58
2023-05-08T19:57:31.118Z,4.05
2023-05-08T19:59:58.589Z,3.22
2023-05-08T20:02:25.990Z,3.08
2023-05-08T20:05:18.820Z,3.13
2023-05-08T20:07:40.806Z,2.70
2023-05-08T20:10:08.536Z,3.40
2023-05-08T20:12:35.969Z,2.85
2023-05-08T20:15:03.507Z,3.38
2023-05-08T20:17:30.959Z,3.28
2023-05-08T20:19:58.347Z,3.80
2023-05-08T20:22:25.783Z,3.58
2023-05-08T20:24:53.217Z,3.13
2023-05-08T20:27:20.680Z,4.00
2023-05-08T20:29:48.077Z,4.47
2023-05-08T20:32:19.206Z,3.50
2023-05-08T20:34:46.668Z,3.17
2023-05-08T20:37:16.041Z,3.35
2023-05-08T20:39:43.806Z,3.88
2023-05-08T20:42:11.289Z,4.30
2023-05-08T20:44:38.783Z,4.53
2023-05-08T20:47:06.258Z,3.65
2023-05-08T20:49:33.699Z,4.25
2023-05-08T20:52:01.096Z,4.15
2023-05-08T20:54:29.952Z,5.72
2023-05-08T20:56:57.427Z,4.50
2023-05-08T20:59:24.874Z,6.63
2023-05-08T21:01:52.273Z,4.75
2023-05-08T21:04:19.717Z,6.20
2023-05-08T21:06:47.124Z,5.32
2023-05-08T21:09:14.540Z,5.63
2023-05-08T21:11:41.898Z,6.07
2023-05-08T21:14:09.293Z,6.60
2023-05-08T21:16:36.726Z,6.88
2023-05-08T21:19:04.244Z,7.53
2023-05-08T21:21:31.788Z,7.05
2023-05-08T21:23:59.232Z,7.85
2023-05-08T21:26:27.012Z,8.13
2023-05-08T21:28:54.628Z,8.32
2023-05-08T21:31:22.516Z,8.32
2023-05-08T21:33:50.066Z,8.27
2023-05-08T21:36:17.446Z,11.40
2023-05-08T21:38:44.892Z,8.23
2023-05-08T21:41:12.257Z,10.43
2023-05-08T21:43:39.739Z,10.15
2023-05-08T21:46:09.204Z,9.70
2023-05-08T21:48:37.347Z,12.25
2023-05-08T21:51:06.665Z,9.65
2023-05-08T21:53:34.148Z,11.00
2023-05-08T21:56:01.511Z,13.77
2023-05-08T21:58:28.968Z,15.35
2023-05-08T22:00:58.411Z,13.82
2023-05-08T22:03:26.312Z,13.68
2023-05-08T22:05:55.372Z,12.30
2023-05-08T22:08:22.761Z,12.68
2023-05-08T22:10:50.114Z,12.02
2023-05-08T22:13:17.584Z,14.30
2023-05-08T22:15:45.089Z,16.05
2023-05-08T22:18:13.444Z,19.85
2023-05-08T22:20:40.991Z,14.18
2023-05-08T22:23:08.507Z,21.75
2023-05-08T22:25:36.046Z,15.88
2023-05-08T22:28:03.464Z,14.65
2023-05-08T22:30:30.818Z,16.38
2023-05-08T22:32:59.481Z,12.55
2023-05-08T22:35:27.736Z,13.52
2023-05-08T22:37:57.370Z,15.10
2023-05-08T22:40:24.836Z,16.10
2023-05-08T22:42:53.527Z,16.85
2023-05-08T22:45:21.314Z,14.00
2023-05-08T22:47:48.941Z,15.13
2023-05-08T22:50:17.266Z,14.25
2023-05-08T22:52:44.785Z,12.27
2023-05-08T22:55:12.372Z,13.30
2023-05-08T22:57:39.923Z,15.55
2023-05-08T23:00:07.634Z,14.48
2023-05-08T23:02:35.687Z,12.23
2023-05-08T23:05:03.863Z,11.30
2023-05-08T23:07:31.319Z,13.93
2023-05-08T23:09:58.701Z,13.15
2023-05-08T23:12:26.224Z,11.68
2023-05-08T23:14:53.665Z,13.68
2023-05-08T23:17:21.076Z,12.52
2023-05-08T23:19:48.525Z,12.82
2023-05-08T23:22:15.947Z,13.35
2023-05-08T23:24:43.431Z,16.30
2023-05-08T23:27:10.800Z,15.45
2023-05-08T23:29:38.198Z,17.60
2023-05-08T23:32:05.703Z,16.67
2023-05-08T23:34:33.089Z,16.65
2023-05-08T23:37:01.659Z,14.95
2023-05-08T23:39:29.130Z,13.93
2023-05-08T23:41:56.505Z,12.80
2023-05-08T23:44:23.899Z,13.20
2023-05-08T23:46:51.382Z,12.63
2023-05-08T23:49:18.791Z,14.70
2023-05-08T23:51:46.248Z,11.38
2023-05-08T23:54:13.700Z,12.45
2023-05-08T23:56:41.209Z,11.23
2023-05-08T23:59:08.582Z,12.43
